sensor_id;sensor_type;location;lat;lon;timestamp;pressure;altitude;pressure_sealevel;temperature;humidity
29903;BME280;30288;50.514;9.678;2023-03-19T00:01:20;98383.44;;;8.06;100.00
29903;BME280;30288;50.514;9.678;2023-03-19T00:03:25;98386.75;;;8.08;100.00
29903;BME280;30288;50.514;9.678;2023-03-19T00:05:30;98389.19;;;8.11;100.00
29903;BME280;30288;50.514;9.678;2023-03-19T00:07:36;98389.09;;;8.14;100.00
29903;BME280;30288;50.514;9.678;2023-03-19T00:09:42;98392.44;;;8.14;100.00
29903;BME280;30288;50.514;9.678;2023-03-19T00:11:49;98391.53;;;8.17;100.00
29903;BME280;30288;50.514;9.678;2023-03-19T00:13:56;98390.75;;;8.15;100.00
29903;BME280;30288;50.514;9.678;2023-03-19T00:16:02;98394.91;;;8.16;100.00
29903;BME280;30288;50.514;9.678;2023-03-19T00:18:07;98394.78;;;8.20;100.00
29903;BME280;30288;50.514;9.678;2023-03-19T00:20:13;98399.78;;;8.22;100.00
29903;BME280;30288;50.514;9.678;2023-03-19T00:22:19;98397.16;;;8.26;100.00
29903;BME280;30288;50.514;9.678;2023-03-19T00:24:24;98391.31;;;8.26;100.00
29903;BME280;30288;50.514;9.678;2023-03-19T00:26:32;98396.41;;;8.23;100.00
29903;BME280;30288;50.514;9.678;2023-03-19T00:28:37;98396.47;;;8.20;100.00
29903;BME280;30288;50.514;9.678;2023-03-19T00:30:45;98395.69;;;8.18;100.00
29903;BME280;30288;50.514;9.678;2023-03-19T00:32:50;98401.63;;;8.14;100.00
29903;BME280;30288;50.514;9.678;2023-03-19T00:34:56;98401.00;;;8.06;100.00
29903;BME280;30288;50.514;9.678;2023-03-19T00:37:00;98397.78;;;8.01;100.00
29903;BME280;30288;50.514;9.678;2023-03-19T00:39:05;98396.31;;;7.92;100.00
29903;BME280;30288;50.514;9.678;2023-03-19T00:41:11;98392.25;;;7.86;100.00
29903;BME280;30288;50.514;9.678;2023-03-19T00:43:18;98394.84;;;7.82;100.00
29903;BME280;30288;50.514;9.678;2023-03-19T00:45:23;98394.34;;;7.66;100.00
29903;BME280;30288;50.514;9.678;2023-03-19T00:47:31;98396.34;;;7.52;100.00
29903;BME280;30288;50.514;9.678;2023-03-19T00:49:37;98393.09;;;7.47;100.00
29903;BME280;30288;50.514;9.678;2023-03-19T00:51:42;98392.34;;;7.43;100.00
29903;BME280;30288;50.514;9.678;2023-03-19T00:53:48;98395.91;;;7.33;100.00
29903;BME280;30288;50.514;9.678;2023-03-19T00:55:53;98392.66;;;7.28;100.00
29903;BME280;30288;50.514;9.678;2023-03-19T00:57:58;98401.94;;;7.23;100.00
29903;BME280;30288;50.514;9.678;2023-03-19T01:00:05;98398.75;;;7.17;100.00
29903;BME280;30288;50.514;9.678;2023-03-19T01:02:10;98392.00;;;7.19;100.00
29903;BME280;30288;50.514;9.678;2023-03-19T01:04:18;98398.59;;;7.23;100.00
29903;BME280;30288;50.514;9.678;2023-03-19T01:06:24;98396.16;;;7.20;100.00
29903;BME280;30288;50.514;9.678;2023-03-19T01:08:30;98390.44;;;7.15;100.00
29903;BME280;30288;50.514;9.678;2023-03-19T01:10:35;98383.75;;;7.14;100.00
29903;BME280;30288;50.514;9.678;2023-03-19T01:12:40;98388.75;;;7.15;100.00
29903;BME280;30288;50.514;9.678;2023-03-19T01:14:46;98388.81;;;7.12;100.00
29903;BME280;30288;50.514;9.678;2023-03-19T01:16:51;98392.09;;;7.16;100.00
29903;BME280;30288;50.514;9.678;2023-03-19T01:18:56;98390.31;;;7.21;100.00
29903;BME280;30288;50.514;9.678;2023-03-19T01:21:05;98385.34;;;7.18;100.00
29903;BME280;30288;50.514;9.678;2023-03-19T01:23:16;98390.25;;;7.24;100.00
29903;BME280;30288;50.514;9.678;2023-03-19T01:25:22;98383.38;;;7.32;100.00
29903;BME280;30288;50.514;9.678;2023-03-19T01:27:35;98383.28;;;7.38;100.00
29903;BME280;30288;50.514;9.678;2023-03-19T01:29:40;98379.06;;;7.40;100.00
29903;BME280;30288;50.514;9.678;2023-03-19T01:31:51;98387.44;;;7.37;100.00
29903;BME280;30288;50.514;9.678;2023-03-19T01:34:08;98391.00;;;7.27;100.00
29903;BME280;30288;50.514;9.678;2023-03-19T01:36:22;98385.22;;;7.24;100.00
29903;BME280;30288;50.514;9.678;2023-03-19T01:38:39;98391.31;;;7.12;100.00
29903;BME280;30288;50.514;9.678;2023-03-19T01:40:49;98385.59;;;7.06;100.00
29903;BME280;30288;50.514;9.678;2023-03-19T01:42:57;98390.69;;;7.02;100.00
29903;BME280;30288;50.514;9.678;2023-03-19T01:45:32;98390.06;;;6.90;100.00
29903;BME280;30288;50.514;9.678;2023-03-19T01:47:56;98390.38;;;6.75;100.00
29903;BME280;30288;50.514;9.678;2023-03-19T01:50:27;98385.28;;;6.79;100.00
29903;BME280;30288;50.514;9.678;2023-03-19T01:53:03;98382.72;;;6.82;100.00
29903;BME280;30288;50.514;9.678;2023-03-19T01:55:37;98382.91;;;6.70;100.00
29903;BME280;30288;50.514;9.678;2023-03-19T01:57:54;98393.81;;;6.68;100.00
29903;BME280;30288;50.514;9.678;2023-03-19T02:00:29;98385.50;;;6.67;100.00
29903;BME280;30288;50.514;9.678;2023-03-19T02:02:36;98384.56;;;6.71;100.00
29903;BME280;30288;50.514;9.678;2023-03-19T02:05:00;98389.66;;;6.68;100.00
29903;BME280;30288;50.514;9.678;2023-03-19T02:07:08;98388.09;;;6.61;100.00
29903;BME280;30288;50.514;9.678;2023-03-19T02:09:16;98388.06;;;6.63;100.00
29903;BME280;30288;50.514;9.678;2023-03-19T02:11:22;98394.97;;;6.50;100.00
29903;BME280;30288;50.514;9.678;2023-03-19T02:13:27;98391.75;;;6.42;100.00
29903;BME280;30288;50.514;9.678;2023-03-19T02:15:33;98385.22;;;6.35;100.00
29903;BME280;30288;50.514;9.678;2023-03-19T02:17:38;98396.16;;;6.29;100.00
29903;BME280;30288;50.514;9.678;2023-03-19T02:19:51;98393.81;;;6.20;100.00
29903;BME280;30288;50.514;9.678;2023-03-19T02:21:59;98402.22;;;6.14;100.00
29903;BME280;30288;50.514;9.678;2023-03-19T02:24:11;98407.19;;;6.18;100.00
29903;BME280;30288;50.514;9.678;2023-03-19T02:26:32;98407.13;;;6.21;100.00
29903;BME280;30288;50.514;9.678;2023-03-19T02:28:42;98407.06;;;6.24;100.00
29903;BME280;30288;50.514;9.678;2023-03-19T02:30:52;98393.63;;;6.31;100.00
29903;BME280;30288;50.514;9.678;2023-03-19T02:32:57;98396.75;;;6.42;100.00
29903;BME280;30288;50.514;9.678;2023-03-19T02:35:04;98386.72;;;6.45;100.00
29903;BME280;30288;50.514;9.678;2023-03-19T02:37:16;98392.22;;;6.64;100.00
29903;BME280;30288;50.514;9.678;2023-03-19T02:39:27;98390.97;;;6.87;100.00
29903;BME280;30288;50.514;9.678;2023-03-19T02:41:38;98402.38;;;7.00;100.00
29903;BME280;30288;50.514;9.678;2023-03-19T02:43:45;98402.47;;;6.97;100.00
29903;BME280;30288;50.514;9.678;2023-03-19T02:45:50;98402.38;;;7.00;100.00
29903;BME280;30288;50.514;9.678;2023-03-19T02:47:57;98395.78;;;6.96;100.00
29903;BME280;30288;50.514;9.678;2023-03-19T02:50:03;98404.25;;;6.89;100.00
29903;BME280;30288;50.514;9.678;2023-03-19T02:52:09;98405.25;;;6.81;100.00
29903;BME280;30288;50.514;9.678;2023-03-19T02:54:14;98406.25;;;6.72;100.00
29903;BME280;30288;50.514;9.678;2023-03-19T02:56:21;98410.44;;;6.70;100.00
29903;BME280;30288;50.514;9.678;2023-03-19T02:58:28;98405.50;;;6.69;100.00
29903;BME280;30288;50.514;9.678;2023-03-19T03:00:35;98405.59;;;6.61;100.00
29903;BME280;30288;50.514;9.678;2023-03-19T03:02:40;98404.06;;;6.55;100.00
29903;BME280;30288;50.514;9.678;2023-03-19T03:04:45;98415.03;;;6.47;100.00
29903;BME280;30288;50.514;9.678;2023-03-19T03:06:50;98416.78;;;6.42;100.00
29903;BME280;30288;50.514;9.678;2023-03-19T03:08:55;98406.00;;;6.38;100.00
29903;BME280;30288;50.514;9.678;2023-03-19T03:11:01;98410.97;;;6.41;100.00
29903;BME280;30288;50.514;9.678;2023-03-19T03:13:06;98414.25;;;6.43;100.00
29903;BME280;30288;50.514;9.678;2023-03-19T03:15:14;98413.44;;;6.43;100.00
29903;BME280;30288;50.514;9.678;2023-03-19T03:17:19;98407.66;;;6.41;100.00
29903;BME280;30288;50.514;9.678;2023-03-19T03:19:24;98410.22;;;6.35;100.00
29903;BME280;30288;50.514;9.678;2023-03-19T03:21:30;98411.91;;;6.33;100.00
29903;BME280;30288;50.514;9.678;2023-03-19T03:23:37;98415.38;;;6.26;100.00
29903;BME280;30288;50.514;9.678;2023-03-19T03:25:42;98413.88;;;6.14;100.00
29903;BME280;30288;50.514;9.678;2023-03-19T03:27:47;98415.53;;;6.17;100.00
29903;BME280;30288;50.514;9.678;2023-03-19T03:29:53;98404.69;;;6.18;100.00
29903;BME280;30288;50.514;9.678;2023-03-19T03:32:01;98401.28;;;6.22;100.00
29903;BME280;30288;50.514;9.678;2023-03-19T03:34:05;98401.22;;;6.26;100.00
29903;BME280;30288;50.514;9.678;2023-03-19T03:36:11;98401.16;;;6.28;100.00
29903;BME280;30288;50.514;9.678;2023-03-19T03:38:16;98396.13;;;6.31;100.00
29903;BME280;30288;50.514;9.678;2023-03-19T03:40:22;98395.28;;;6.32;100.00
29903;BME280;30288;50.514;9.678;2023-03-19T03:42:27;98396.16;;;6.29;100.00
29903;BME280;30288;50.514;9.678;2023-03-19T03:44:32;98391.97;;;6.30;100.00
29903;BME280;30288;50.514;9.678;2023-03-19T03:46:38;98398.66;;;6.28;100.00
29903;BME280;30288;50.514;9.678;2023-03-19T03:48:47;98406.06;;;6.35;100.00
29903;BME280;30288;50.514;9.678;2023-03-19T03:50:52;98409.28;;;6.42;100.00
29903;BME280;30288;50.514;9.678;2023-03-19T03:53:01;98408.44;;;6.43;100.00
29903;BME280;30288;50.514;9.678;2023-03-19T03:55:08;98401.72;;;6.45;100.00
29903;BME280;30288;50.514;9.678;2023-03-19T03:57:13;98405.09;;;6.42;100.00
29903;BME280;30288;50.514;9.678;2023-03-19T03:59:18;98412.72;;;6.36;100.00
29903;BME280;30288;50.514;9.678;2023-03-19T04:01:23;98410.19;;;6.38;100.00
29903;BME280;30288;50.514;9.678;2023-03-19T04:03:30;98412.69;;;6.38;100.00
29903;BME280;30288;50.514;9.678;2023-03-19T04:05:38;98408.53;;;6.37;100.00
29903;BME280;30288;50.514;9.678;2023-03-19T04:07:44;98406.78;;;6.42;100.00
29903;BME280;30288;50.514;9.678;2023-03-19T04:09:49;98401.63;;;6.51;100.00
29903;BME280;30288;50.514;9.678;2023-03-19T04:11:55;98409.94;;;6.53;100.00
29903;BME280;30288;50.514;9.678;2023-03-19T04:14:00;98408.16;;;6.58;100.00
29903;BME280;30288;50.514;9.678;2023-03-19T04:16:08;98414.84;;;6.59;100.00
29903;BME280;30288;50.514;9.678;2023-03-19T04:18:15;98422.44;;;6.53;100.00
29903;BME280;30288;50.514;9.678;2023-03-19T04:20:20;98423.28;;;6.52;100.00
29903;BME280;30288;50.514;9.678;2023-03-19T04:22:28;98418.25;;;6.55;100.00
29903;BME280;30288;50.514;9.678;2023-03-19T04:24:33;98425.75;;;6.53;100.00
29903;BME280;30288;50.514;9.678;2023-03-19T04:26:38;98423.25;;;6.55;100.00
29903;BME280;30288;50.514;9.678;2023-03-19T04:28:44;98428.25;;;6.55;100.00
29903;BME280;30288;50.514;9.678;2023-03-19T04:30:49;98421.59;;;6.54;100.00
29903;BME280;30288;50.514;9.678;2023-03-19T04:32:55;98418.25;;;6.55;100.00
29903;BME280;30288;50.514;9.678;2023-03-19T04:35:00;98420.84;;;6.49;100.00
29903;BME280;30288;50.514;9.678;2023-03-19T04:37:05;98421.66;;;6.51;100.00
29903;BME280;30288;50.514;9.678;2023-03-19T04:39:21;98424.25;;;6.45;100.00
29903;BME280;30288;50.514;9.678;2023-03-19T04:41:27;98418.50;;;6.38;100.00
29903;BME280;30288;50.514;9.678;2023-03-19T04:43:42;98425.31;;;6.32;100.00
29903;BME280;30288;50.514;9.678;2023-03-19T04:45:47;98421.16;;;6.31;100.00
29903;BME280;30288;50.514;9.678;2023-03-19T04:47:52;98427.81;;;6.29;100.00
29903;BME280;30288;50.514;9.678;2023-03-19T04:49:57;98432.13;;;6.21;100.00
29903;BME280;30288;50.514;9.678;2023-03-19T04:52:07;98431.38;;;6.15;100.00
29903;BME280;30288;50.514;9.678;2023-03-19T04:54:12;98434.78;;;6.11;100.00
29903;BME280;30288;50.514;9.678;2023-03-19T04:56:20;98428.19;;;6.07;100.00
29903;BME280;30288;50.514;9.678;2023-03-19T04:58:25;98434.09;;;6.00;100.00
29903;BME280;30288;50.514;9.678;2023-03-19T05:00:35;98437.66;;;5.84;100.00
29903;BME280;30288;50.514;9.678;2023-03-19T05:02:41;98432.75;;;5.75;100.00
29903;BME280;30288;50.514;9.678;2023-03-19T05:04:47;98436.94;;;5.75;100.00
29903;BME280;30288;50.514;9.678;2023-03-19T05:06:52;98439.41;;;5.76;100.00
29903;BME280;30288;50.514;9.678;2023-03-19T05:08:58;98444.41;;;5.76;100.00
29903;BME280;30288;50.514;9.678;2023-03-19T05:11:04;98447.00;;;5.70;100.00
29903;BME280;30288;50.514;9.678;2023-03-19T05:13:24;98448.63;;;5.71;100.00
29903;BME280;30288;50.514;9.678;2023-03-19T05:15:30;98451.94;;;5.71;100.00
29903;BME280;30288;50.514;9.678;2023-03-19T05:17:40;98456.13;;;5.71;100.00
29903;BME280;30288;50.514;9.678;2023-03-19T05:19:53;98451.94;;;5.71;100.00
29903;BME280;30288;50.514;9.678;2023-03-19T05:21:58;98449.44;;;5.73;100.00
29903;BME280;30288;50.514;9.678;2023-03-19T05:24:04;98451.09;;;5.74;100.00
29903;BME280;30288;50.514;9.678;2023-03-19T05:26:10;98449.31;;;5.82;100.00
29903;BME280;30288;50.514;9.678;2023-03-19T05:28:38;98449.31;;;5.82;100.00
29903;BME280;30288;50.514;9.678;2023-03-19T05:30:46;98459.31;;;5.82;100.00
29903;BME280;30288;50.514;9.678;2023-03-19T05:32:57;98465.16;;;5.83;100.00
29903;BME280;30288;50.514;9.678;2023-03-19T05:35:09;98463.41;;;5.86;100.00
29903;BME280;30288;50.514;9.678;2023-03-19T05:37:14;98460.06;;;5.92;100.00
29903;BME280;30288;50.514;9.678;2023-03-19T05:39:26;98462.44;;;5.99;100.00
29903;BME280;30288;50.514;9.678;2023-03-19T05:41:36;98457.31;;;6.08;100.00
29903;BME280;30288;50.514;9.678;2023-03-19T05:43:44;98457.22;;;6.14;100.00
29903;BME280;30288;50.514;9.678;2023-03-19T05:46:04;98461.31;;;6.19;100.00
29903;BME280;30288;50.514;9.678;2023-03-19T05:48:09;98461.19;;;6.28;100.00
29903;BME280;30288;50.514;9.678;2023-03-19T05:50:19;98471.09;;;6.35;100.00
29903;BME280;30288;50.514;9.678;2023-03-19T05:52:43;98470.94;;;6.44;100.00
29903;BME280;30288;50.514;9.678;2023-03-19T05:54:48;98473.31;;;6.52;100.00
29903;BME280;30288;50.514;9.678;2023-03-19T05:57:06;98468.16;;;6.61;100.00
29903;BME280;30288;50.514;9.678;2023-03-19T05:59:37;98469.66;;;6.71;100.00
29903;BME280;30288;50.514;9.678;2023-03-19T06:02:15;98471.31;;;6.72;100.00
29903;BME280;30288;50.514;9.678;2023-03-19T06:04:22;98474.63;;;6.74;100.00
29903;BME280;30288;50.514;9.678;2023-03-19T06:06:28;98472.06;;;6.79;100.00
29903;BME280;30288;50.514;9.678;2023-03-19T06:08:33;98475.31;;;6.82;100.00
29903;BME280;30288;50.514;9.678;2023-03-19T06:11:00;98479.41;;;6.86;100.00
29903;BME280;30288;50.514;9.678;2023-03-19T06:13:08;98480.16;;;6.93;100.00
29903;BME280;30288;50.514;9.678;2023-03-19T06:15:19;98482.56;;;6.97;100.00
29903;BME280;30288;50.514;9.678;2023-03-19T06:18:03;98493.28;;;7.04;100.00
29903;BME280;30288;50.514;9.678;2023-03-19T06:20:11;98494.88;;;7.08;100.00
29903;BME280;30288;50.514;9.678;2023-03-19T06:22:17;98497.31;;;7.13;100.00
29903;BME280;30288;50.514;9.678;2023-03-19T06:24:23;98493.78;;;7.23;100.00
29903;BME280;30288;50.514;9.678;2023-03-19T06:26:27;98497.00;;;7.31;100.00
29903;BME280;30288;50.514;9.678;2023-03-19T06:28:34;98505.19;;;7.39;100.00
29903;BME280;30288;50.514;9.678;2023-03-19T06:30:42;98510.13;;;7.42;100.00
29903;BME280;30288;50.514;9.678;2023-03-19T06:33:13;98510.00;;;7.48;100.00
29903;BME280;30288;50.514;9.678;2023-03-19T06:35:19;98513.19;;;7.56;100.00
29903;BME280;30288;50.514;9.678;2023-03-19T06:37:25;98513.88;;;7.64;100.00
29903;BME280;30288;50.514;9.678;2023-03-19T06:39:31;98521.22;;;7.72;100.00
29903;BME280;30288;50.514;9.678;2023-03-19T06:41:37;98517.72;;;7.80;100.00
29903;BME280;30288;50.514;9.678;2023-03-19T06:43:48;98522.63;;;7.86;100.00
29903;BME280;30288;50.514;9.678;2023-03-19T06:45:57;98517.41;;;7.96;100.00
29903;BME280;30288;50.514;9.678;2023-03-19T06:48:03;98520.56;;;8.04;100.00
29903;BME280;30288;50.514;9.678;2023-03-19T06:50:09;98520.44;;;8.10;100.00
29903;BME280;30288;50.514;9.678;2023-03-19T06:52:15;98528.63;;;8.18;100.00
29903;BME280;30288;50.514;9.678;2023-03-19T06:54:20;98525.22;;;8.22;100.00
29903;BME280;30288;50.514;9.678;2023-03-19T06:56:25;98524.22;;;8.27;100.00
29903;BME280;30288;50.514;9.678;2023-03-19T06:58:31;98523.25;;;8.36;100.00
29903;BME280;30288;50.514;9.678;2023-03-19T07:00:36;98522.25;;;8.43;100.00
29903;BME280;30288;50.514;9.678;2023-03-19T07:02:45;98526.28;;;8.50;100.00
29903;BME280;30288;50.514;9.678;2023-03-19T07:04:50;98520.25;;;8.56;100.00
29903;BME280;30288;50.514;9.678;2023-03-19T07:06:55;98525.91;;;8.65;100.00
29903;BME280;30288;50.514;9.678;2023-03-19T07:09:00;98533.28;;;8.73;100.00
29903;BME280;30288;50.514;9.678;2023-03-19T07:11:06;98535.81;;;8.71;100.00
29903;BME280;30288;50.514;9.678;2023-03-19T07:13:11;98533.88;;;8.83;100.00
29903;BME280;30288;50.514;9.678;2023-03-19T07:15:17;98539.63;;;8.86;100.00
29903;BME280;30288;50.514;9.678;2023-03-19T07:17:23;98541.25;;;8.89;100.00
29903;BME280;30288;50.514;9.678;2023-03-19T07:19:31;98547.81;;;8.94;100.00
29903;BME280;30288;50.514;9.678;2023-03-19T07:21:36;98544.22;;;9.03;100.00
29903;BME280;30288;50.514;9.678;2023-03-19T07:23:41;98551.72;;;9.06;100.00
29903;BME280;30288;50.514;9.678;2023-03-19T07:25:48;98549.91;;;9.11;100.00
29903;BME280;30288;50.514;9.678;2023-03-19T07:27:53;98552.22;;;9.18;100.00
29903;BME280;30288;50.514;9.678;2023-03-19T07:29:58;98551.16;;;9.27;100.00
29903;BME280;30288;50.514;9.678;2023-03-19T07:32:05;98557.78;;;9.31;100.00
29903;BME280;30288;50.514;9.678;2023-03-19T07:34:10;98552.09;;;9.23;100.00
29903;BME280;30288;50.514;9.678;2023-03-19T07:36:18;98551.16;;;9.27;100.00
29903;BME280;30288;50.514;9.678;2023-03-19T07:38:23;98556.88;;;9.34;100.00
29903;BME280;30288;50.514;9.678;2023-03-19T07:40:28;98561.97;;;9.31;100.00
29903;BME280;30288;50.514;9.678;2023-03-19T07:42:34;98555.78;;;9.42;100.00
29903;BME280;30288;50.514;9.678;2023-03-19T07:44:39;98563.88;;;9.53;100.00
29903;BME280;30288;50.514;9.678;2023-03-19T07:46:45;98563.09;;;9.51;100.00
29903;BME280;30288;50.514;9.678;2023-03-19T07:48:50;98567.97;;;9.57;100.00
29903;BME280;30288;50.514;9.678;2023-03-19T07:50:55;98567.25;;;9.52;100.00
29903;BME280;30288;50.514;9.678;2023-03-19T07:53:03;98569.78;;;9.52;100.00
29903;BME280;30288;50.514;9.678;2023-03-19T07:55:09;98564.38;;;9.66;100.00
29903;BME280;30288;50.514;9.678;2023-03-19T07:57:14;98571.63;;;9.77;100.00
29903;BME280;30288;50.514;9.678;2023-03-19T07:59:19;98569.56;;;9.91;100.00
29903;BME280;30288;50.514;9.678;2023-03-19T08:01:24;98571.47;;;9.83;100.00
29903;BME280;30288;50.514;9.678;2023-03-19T08:03:29;98576.88;;;9.98;100.00
29903;BME280;30288;50.514;9.678;2023-03-19T08:05:34;98567.38;;;10.08;100.00
29903;BME280;30288;50.514;9.678;2023-03-19T08:07:39;98567.09;;;10.20;100.00
29903;BME280;30288;50.514;9.678;2023-03-19T08:09:48;98580.84;;;10.36;100.00
29903;BME280;30288;50.514;9.678;2023-03-19T08:11:53;98578.75;;;10.50;100.00
29903;BME280;30288;50.514;9.678;2023-03-19T08:13:58;98582.47;;;10.67;100.00
29903;BME280;30288;50.514;9.678;2023-03-19T08:16:05;98577.03;;;10.79;100.00
29903;BME280;30288;50.514;9.678;2023-03-19T08:18:11;98569.00;;;10.94;100.00
29903;BME280;30288;50.514;9.678;2023-03-19T08:20:16;98574.22;;;11.14;100.00
29903;BME280;30288;50.514;9.678;2023-03-19T08:22:22;98571.13;;;11.31;100.00
29903;BME280;30288;50.514;9.678;2023-03-19T08:24:27;98572.38;;;11.44;100.00
29903;BME280;30288;50.514;9.678;2023-03-19T08:26:35;98575.97;;;11.62;100.00
29903;BME280;30288;50.514;9.678;2023-03-19T08:28:40;98574.69;;;11.75;100.00
29903;BME280;30288;50.514;9.678;2023-03-19T08:30:45;98569.66;;;11.98;100.00
29903;BME280;30288;50.514;9.678;2023-03-19T08:32:50;98575.91;;;12.11;100.00
29903;BME280;30288;50.514;9.678;2023-03-19T08:34:55;98577.09;;;12.24;100.00
29903;BME280;30288;50.514;9.678;2023-03-19T08:37:01;98582.13;;;12.48;100.00
29903;BME280;30288;50.514;9.678;2023-03-19T08:39:06;98579.72;;;12.45;100.00
29903;BME280;30288;50.514;9.678;2023-03-19T08:41:12;98580.63;;;12.64;100.00
29903;BME280;30288;50.514;9.678;2023-03-19T08:43:19;98583.56;;;12.75;100.00
29903;BME280;30288;50.514;9.678;2023-03-19T08:45:24;98588.44;;;12.80;100.00
29903;BME280;30288;50.514;9.678;2023-03-19T08:47:29;98578.06;;;12.87;100.00
29903;BME280;30288;50.514;9.678;2023-03-19T08:49:34;98588.09;;;12.89;100.00
29903;BME280;30288;50.514;9.678;2023-03-19T08:51:39;98582.59;;;12.99;100.00
29903;BME280;30288;50.514;9.678;2023-03-19T08:53:44;98582.38;;;13.05;100.00
29903;BME280;30288;50.514;9.678;2023-03-19T08:55:52;98581.97;;;13.16;100.00
29903;BME280;30288;50.514;9.678;2023-03-19T08:57:57;98590.25;;;13.20;100.00
29903;BME280;30288;50.514;9.678;2023-03-19T09:00:07;98584.69;;;13.32;100.00
29903;BME280;30288;50.514;9.678;2023-03-19T09:02:13;98593.41;;;13.45;100.00
29903;BME280;30288;50.514;9.678;2023-03-19T09:04:18;98580.06;;;13.62;100.00
29903;BME280;30288;50.514;9.678;2023-03-19T09:06:23;98583.16;;;13.68;100.00
29903;BME280;30288;50.514;9.678;2023-03-19T09:08:29;98584.66;;;13.72;100.00
29903;BME280;30288;50.514;9.678;2023-03-19T09:10:34;98586.44;;;13.70;100.00
29903;BME280;30288;50.514;9.678;2023-03-19T09:12:39;98586.84;;;13.80;100.00
29903;BME280;30288;50.514;9.678;2023-03-19T09:14:44;98588.34;;;13.84;100.00
29903;BME280;30288;50.514;9.678;2023-03-19T09:16:51;98588.53;;;13.99;100.00
29903;BME280;30288;50.514;9.678;2023-03-19T09:18:56;98592.34;;;13.89;100.00
29903;BME280;30288;50.514;9.678;2023-03-19T09:21:02;98592.09;;;13.95;100.00
29903;BME280;30288;50.514;9.678;2023-03-19T09:23:07;98583.88;;;14.09;100.00
29903;BME280;30288;50.514;9.678;2023-03-19T09:25:12;98591.13;;;14.17;100.00
29903;BME280;30288;50.514;9.678;2023-03-19T09:27:17;98589.50;;;14.16;100.00
29903;BME280;30288;50.514;9.678;2023-03-19T09:29:23;98597.34;;;14.10;100.00
29903;BME280;30288;50.514;9.678;2023-03-19T09:31:28;98590.84;;;14.23;100.00
29903;BME280;30288;50.514;9.678;2023-03-19T09:33:35;98592.25;;;14.11;100.00
29903;BME280;30288;50.514;9.678;2023-03-19T09:35:41;98597.78;;;14.00;100.00
29903;BME280;30288;50.514;9.678;2023-03-19T09:37:46;98595.09;;;14.03;100.00
29903;BME280;30288;50.514;9.678;2023-03-19T09:39:53;98591.81;;;14.20;100.00
29903;BME280;30288;50.514;9.678;2023-03-19T09:42:14;98597.78;;;14.38;100.00
29903;BME280;30288;50.514;9.678;2023-03-19T09:44:28;98590.72;;;14.63;100.00
29903;BME280;30288;50.514;9.678;2023-03-19T09:46:38;98598.13;;;14.68;100.00
29903;BME280;30288;50.514;9.678;2023-03-19T09:48:53;98588.38;;;14.77;100.00
29903;BME280;30288;50.514;9.678;2023-03-19T09:51:03;98592.84;;;14.89;100.00
29903;BME280;30288;50.514;9.678;2023-03-19T09:53:15;98586.75;;;15.11;100.00
29903;BME280;30288;50.514;9.678;2023-03-19T09:55:39;98593.59;;;15.43;100.00
29903;BME280;30288;50.514;9.678;2023-03-19T09:57:45;98590.09;;;15.63;100.00
29903;BME280;30288;50.514;9.678;2023-03-19T09:59:51;98593.41;;;15.81;100.00
29903;BME280;30288;50.514;9.678;2023-03-19T10:02:09;98602.84;;;15.94;100.00
29903;BME280;30288;50.514;9.678;2023-03-19T10:04:40;98594.88;;;15.85;100.00
29903;BME280;30288;50.514;9.678;2023-03-19T10:06:46;98593.13;;;16.02;100.00
29903;BME280;30288;50.514;9.678;2023-03-19T10:09:11;98593.94;;;16.03;100.00
29903;BME280;30288;50.514;9.678;2023-03-19T10:11:36;98587.75;;;16.24;100.00
29903;BME280;30288;50.514;9.678;2023-03-19T10:13:58;98588.38;;;16.12;100.00
29903;BME280;30288;50.514;9.678;2023-03-19T10:16:12;98588.50;;;15.93;100.00
29903;BME280;30288;50.514;9.678;2023-03-19T10:18:23;98595.41;;;16.07;100.00
29903;BME280;30288;50.514;9.678;2023-03-19T10:20:42;98581.19;;;16.20;100.00
29903;BME280;30288;50.514;9.678;2023-03-19T10:22:52;98585.09;;;16.26;100.00
29903;BME280;30288;50.514;9.678;2023-03-19T10:24:58;98588.31;;;16.29;100.00
29903;BME280;30288;50.514;9.678;2023-03-19T10:27:10;98584.84;;;16.46;100.00
29903;BME280;30288;50.514;9.678;2023-03-19T10:29:19;98586.56;;;16.45;100.00
29903;BME280;30288;50.514;9.678;2023-03-19T10:31:28;98591.44;;;16.66;100.00
29903;BME280;30288;50.514;9.678;2023-03-19T10:33:42;98584.81;;;16.93;100.00
29903;BME280;30288;50.514;9.678;2023-03-19T10:35:56;98586.72;;;17.19;100.00
29903;BME280;30288;50.514;9.678;2023-03-19T10:38:15;98584.72;;;17.10;100.00
29903;BME280;30288;50.514;9.678;2023-03-19T10:40:31;98577.19;;;16.93;100.00
29903;BME280;30288;50.514;9.678;2023-03-19T10:42:49;98584.94;;;16.76;100.00
29903;BME280;30288;50.514;9.678;2023-03-19T10:45:04;98588.38;;;16.75;100.00
29903;BME280;30288;50.514;9.678;2023-03-19T10:47:15;98592.00;;;16.39;100.00
29903;BME280;30288;50.514;9.678;2023-03-19T10:49:21;98593.31;;;16.15;100.00
29903;BME280;30288;50.514;9.678;2023-03-19T10:51:30;98584.28;;;16.56;100.00
29903;BME280;30288;50.514;9.678;2023-03-19T10:53:37;98591.50;;;16.48;100.00
29903;BME280;30288;50.514;9.678;2023-03-19T10:55:46;98587.88;;;16.84;100.00
29903;BME280;30288;50.514;9.678;2023-03-19T10:58:02;98584.91;;;17.35;100.00
29903;BME280;30288;50.514;9.678;2023-03-19T11:00:16;98575.00;;;17.61;100.00
29903;BME280;30288;50.514;9.678;2023-03-19T11:02:24;98578.94;;;17.50;100.00
29903;BME280;30288;50.514;9.678;2023-03-19T11:04:33;98574.69;;;17.07;100.00
29903;BME280;30288;50.514;9.678;2023-03-19T11:06:41;98578.81;;;16.94;100.00
29903;BME280;30288;50.514;9.678;2023-03-19T11:08:54;98573.75;;;16.94;100.00
29903;BME280;30288;50.514;9.678;2023-03-19T11:11:01;98575.53;;;16.92;100.00
29903;BME280;30288;50.514;9.678;2023-03-19T11:13:19;98580.38;;;16.96;100.00
29903;BME280;30288;50.514;9.678;2023-03-19T11:15:33;98579.84;;;17.35;100.00
29903;BME280;30288;50.514;9.678;2023-03-19T11:17:45;98577.63;;;17.87;100.00
29903;BME280;30288;50.514;9.678;2023-03-19T11:19:52;98579.31;;;18.15;100.00